createdAt,value
2023-03-01T00:01:40.779Z,71.09
2023-03-01T00:04:09.371Z,71.25
2023-03-01T00:06:38.376Z,71.01
2023-03-01T00:09:06.373Z,71.28
2023-03-01T00:11:35.642Z,71.10
2023-03-01T00:14:05.760Z,71.11
2023-03-01T00:16:40.018Z,71.05
2023-03-01T00:19:10.621Z,71.05
2023-03-01T00:21:39.800Z,71.39
2023-03-01T00:24:11.351Z,71.80
2023-03-01T00:26:39.367Z,71.81
2023-03-01T00:29:07.616Z,72.15
2023-03-01T00:31:38.447Z,71.51
2023-03-01T00:34:08.349Z,72.14
2023-03-01T00:36:41.369Z,72.34
2023-03-01T00:39:15.703Z,72.20
2023-03-01T00:41:46.163Z,72.61
2023-03-01T00:44:16.005Z,72.65
2023-03-01T00:46:45.784Z,72.94
2023-03-01T00:49:15.615Z,72.51
2023-03-01T00:51:44.074Z,72.41
2023-03-01T00:54:12.717Z,72.28
2023-03-01T00:56:42.095Z,72.32
2023-03-01T00:59:09.874Z,73.02
2023-03-01T01:01:38.507Z,72.63
2023-03-01T01:04:10.944Z,72.92
2023-03-01T01:06:43.363Z,72.52
2023-03-01T01:09:18.392Z,73.08
2023-03-01T01:11:49.164Z,72.89
2023-03-01T01:14:19.067Z,73.17
2023-03-01T01:16:46.956Z,73.34
2023-03-01T01:19:17.314Z,73.47
2023-03-01T01:21:46.030Z,73.04
2023-03-01T01:24:15.165Z,74.13
2023-03-01T01:26:44.236Z,74.12
2023-03-01T01:29:12.249Z,74.06
2023-03-01T01:31:42.885Z,74.14
2023-03-01T01:34:19.313Z,74.06
2023-03-01T01:36:50.851Z,74.11
2023-03-01T01:39:19.225Z,73.91
2023-03-01T01:41:47.792Z,73.63
2023-03-01T01:44:20.041Z,74.31
2023-03-01T01:46:52.446Z,74.29
2023-03-01T01:49:27.665Z,73.83
2023-03-01T01:52:02.910Z,73.98
2023-03-01T01:54:37.646Z,74.74
2023-03-01T01:57:09.493Z,74.87
2023-03-01T01:59:38.986Z,74.20
2023-03-01T02:02:08.499Z,74.31
2023-03-01T02:04:37.973Z,74.57
2023-03-01T02:07:11.015Z,74.51
2023-03-01T02:09:39.271Z,74.84
2023-03-01T02:12:07.951Z,74.23
2023-03-01T02:14:36.672Z,74.62
2023-03-01T02:17:05.110Z,74.73
2023-03-01T02:19:51.129Z,75.02
2023-03-01T02:22:26.234Z,75.11
2023-03-01T02:25:04.830Z,75.46
2023-03-01T02:27:41.620Z,75.38
2023-03-01T02:30:14.038Z,75.19
2023-03-01T02:32:42.776Z,75.04
2023-03-01T02:35:13.944Z,75.07
2023-03-01T02:37:43.388Z,75.60
2023-03-01T02:40:16.642Z,75.87
2023-03-01T02:42:51.377Z,75.41
2023-03-01T02:45:20.798Z,75.29
2023-03-01T02:47:48.743Z,75.26
2023-03-01T02:50:27.352Z,74.95
2023-03-01T02:53:03.852Z,75.02
2023-03-01T02:55:32.521Z,74.74
2023-03-01T02:58:04.066Z,74.96
2023-03-01T03:00:41.900Z,75.22
2023-03-01T03:03:11.579Z,74.93
2023-03-01T03:05:40.238Z,74.77
2023-03-01T03:08:08.682Z,74.80
2023-03-01T03:10:40.479Z,74.51
2023-03-01T03:13:10.466Z,75.04
2023-03-01T03:15:42.632Z,74.49
2023-03-01T03:18:14.606Z,74.58
2023-03-01T03:20:43.667Z,74.21
2023-03-01T03:23:12.841Z,74.41
2023-03-01T03:25:41.637Z,74.37
2023-03-01T03:28:11.637Z,74.10
2023-03-01T03:30:43.657Z,74.63
2023-03-01T03:33:15.461Z,74.79
2023-03-01T03:35:46.368Z,74.64
2023-03-01T03:38:20.528Z,74.79
2023-03-01T03:40:52.279Z,74.63
2023-03-01T03:43:22.632Z,74.65
2023-03-01T03:45:54.309Z,74.43
2023-03-01T03:48:24.184Z,74.57
2023-03-01T03:50:55.067Z,74.58
2023-03-01T03:53:25.611Z,74.60
2023-03-01T03:55:53.839Z,74.21
2023-03-01T03:58:23.750Z,75.30
2023-03-01T04:00:54.899Z,74.07
2023-03-01T04:03:23.052Z,74.52
2023-03-01T04:05:52.396Z,74.17
2023-03-01T04:08:21.919Z,74.35
2023-03-01T04:10:51.669Z,74.71
2023-03-01T04:13:22.398Z,74.50
2023-03-01T04:15:51.515Z,74.51
2023-03-01T04:18:22.632Z,74.67
2023-03-01T04:20:52.930Z,74.23
2023-03-01T04:23:22.860Z,74.65
2023-03-01T04:25:56.462Z,74.41
2023-03-01T04:28:26.453Z,74.54
2023-03-01T04:30:55.268Z,74.38
2023-03-01T04:33:25.453Z,74.49
2023-03-01T04:35:53.713Z,74.44
2023-03-01T04:38:23.199Z,74.14
2023-03-01T04:40:51.498Z,74.42
2023-03-01T04:43:19.356Z,74.65
2023-03-01T04:45:50.320Z,74.62
2023-03-01T04:48:18.081Z,74.63
2023-03-01T04:50:48.124Z,74.99
2023-03-01T04:53:16.329Z,74.43
2023-03-01T04:55:44.705Z,75.30
2023-03-01T04:58:12.728Z,74.52
2023-03-01T05:00:40.537Z,75.01
2023-03-01T05:03:08.389Z,74.96
2023-03-01T05:05:38.276Z,74.73
2023-03-01T05:08:08.973Z,74.59
2023-03-01T05:10:39.721Z,74.79
2023-03-01T05:13:08.454Z,74.71
2023-03-01T05:15:37.501Z,74.77
2023-03-01T05:18:08.162Z,75.14
2023-03-01T05:20:37.184Z,74.85
2023-03-01T05:23:08.071Z,75.14
2023-03-01T05:25:41.178Z,74.73
2023-03-01T05:28:14.171Z,74.95
2023-03-01T05:30:43.962Z,75.39
2023-03-01T05:33:14.295Z,74.89
2023-03-01T05:35:43.365Z,74.98
2023-03-01T05:38:14.335Z,75.37
2023-03-01T05:40:44.552Z,74.68
2023-03-01T05:43:13.834Z,75.47
2023-03-01T05:45:42.958Z,74.89
2023-03-01T05:48:13.354Z,75.05
2023-03-01T05:50:44.546Z,75.66
2023-03-01T05:53:13.971Z,75.44
2023-03-01T05:55:44.755Z,75.02
2023-03-01T05:58:16.092Z,75.05
2023-03-01T06:00:45.317Z,75.09
2023-03-01T06:03:14.533Z,75.76
2023-03-01T06:05:42.810Z,75.85
2023-03-01T06:08:12.591Z,75.52
2023-03-01T06:10:41.541Z,75.47
2023-03-01T06:13:11.076Z,74.97
2023-03-01T06:15:39.090Z,75.27
2023-03-01T06:18:06.972Z,75.22
2023-03-01T06:20:34.842Z,75.07
2023-03-01T06:23:03.910Z,75.11
2023-03-01T06:25:32.064Z,74.70
2023-03-01T06:28:00.084Z,74.90
2023-03-01T06:30:29.226Z,74.79
2023-03-01T06:33:02.257Z,74.74
2023-03-01T06:35:31.596Z,74.92
2023-03-01T06:38:01.524Z,74.80
2023-03-01T06:40:29.811Z,75.17
2023-03-01T06:42:57.596Z,75.87
2023-03-01T06:45:27.304Z,75.28
2023-03-01T06:48:03.650Z,75.66
2023-03-01T06:50:33.304Z,75.72
2023-03-01T06:53:01.975Z,76.03
2023-03-01T06:55:30.908Z,75.79
2023-03-01T06:58:00.049Z,75.57
2023-03-01T07:00:29.907Z,75.69
2023-03-01T07:03:02.899Z,75.92
2023-03-01T07:05:31.574Z,75.85
2023-03-01T07:07:59.533Z,75.46
2023-03-01T07:10:27.342Z,75.65
2023-03-01T07:12:57.052Z,75.46
2023-03-01T07:15:28.301Z,75.28
2023-03-01T07:17:56.389Z,75.38
2023-03-01T07:20:28.386Z,75.29
2023-03-01T07:22:57.429Z,75.25
2023-03-01T07:25:26.264Z,75.23
2023-03-01T07:27:55.974Z,75.19
2023-03-01T07:30:26.733Z,75.08
2023-03-01T07:32:55.800Z,75.04
2023-03-01T07:35:27.085Z,75.00
2023-03-01T07:37:55.195Z,75.02
2023-03-01T07:40:23.019Z,74.87
2023-03-01T07:42:50.869Z,74.78
2023-03-01T07:45:18.888Z,74.74
2023-03-01T07:47:46.739Z,74.88
2023-03-01T07:50:14.695Z,74.63
2023-03-01T07:52:46.803Z,74.48
2023-03-01T07:55:14.810Z,74.36
2023-03-01T07:57:42.701Z,74.22
2023-03-01T08:00:14.097Z,74.58
2023-03-01T08:02:42.910Z,74.33
2023-03-01T08:05:12.988Z,74.08
2023-03-01T08:07:44.955Z,74.35
2023-03-01T08:10:13.832Z,73.84
2023-03-01T08:12:42.456Z,73.96
2023-03-01T08:15:11.786Z,73.65
2023-03-01T08:17:40.400Z,73.57
2023-03-01T08:20:08.920Z,73.43
2023-03-01T08:22:36.911Z,73.10
2023-03-01T08:25:06.930Z,73.29
2023-03-01T08:27:34.712Z,72.81
2023-03-01T08:30:02.669Z,72.58
2023-03-01T08:32:30.595Z,71.64
2023-03-01T08:34:58.623Z,71.54
2023-03-01T08:37:28.796Z,71.29
2023-03-01T08:39:56.972Z,71.09
2023-03-01T08:42:27.738Z,70.66
2023-03-01T08:44:56.033Z,70.46
2023-03-01T08:47:25.198Z,69.96
2023-03-01T08:49:53.753Z,70.05
2023-03-01T08:52:21.975Z,69.65
2023-03-01T08:54:49.957Z,68.92
2023-03-01T08:57:17.891Z,68.55
2023-03-01T08:59:47.088Z,68.77
2023-03-01T09:02:16.795Z,68.34
2023-03-01T09:04:45.266Z,67.49
2023-03-01T09:07:13.172Z,67.82
2023-03-01T09:09:42.912Z,67.60
2023-03-01T09:12:11.623Z,67.03
2023-03-01T09:14:39.966Z,67.36
2023-03-01T09:17:09.261Z,66.88
2023-03-01T09:19:37.430Z,66.64
2023-03-01T09:22:05.951Z,66.89
2023-03-01T09:24:33.754Z,66.86
2023-03-01T09:27:01.898Z,67.10
2023-03-01T09:29:30.527Z,66.71
2023-03-01T09:31:58.560Z,66.67
2023-03-01T09:34:27.949Z,66.79
2023-03-01T09:36:55.950Z,66.78
2023-03-01T09:39:23.794Z,67.05
2023-03-01T09:42:00.790Z,66.42
2023-03-01T09:44:34.246Z,66.63
2023-03-01T09:47:03.133Z,66.68
2023-03-01T09:49:35.221Z,66.70
2023-03-01T09:52:22.163Z,66.57
2023-03-01T09:54:55.282Z,66.88
2023-03-01T09:57:30.838Z,66.39
2023-03-01T10:00:08.250Z,66.54
2023-03-01T10:02:44.717Z,66.11
2023-03-01T10:05:31.566Z,65.68
2023-03-01T10:08:16.895Z,65.92
2023-03-01T10:10:48.127Z,65.80
2023-03-01T10:13:21.514Z,65.98
2023-03-01T10:15:56.347Z,65.83
2023-03-01T10:18:28.602Z,65.44
2023-03-01T10:21:00.686Z,65.49
2023-03-01T10:23:30.745Z,65.69
2023-03-01T10:26:19.817Z,65.14
2023-03-01T10:28:59.142Z,64.61
2023-03-01T10:31:37.965Z,64.68
2023-03-01T10:34:11.818Z,64.59
2023-03-01T10:36:43.405Z,65.72
2023-03-01T10:39:17.238Z,64.87
2023-03-01T10:41:59.332Z,64.38
2023-03-01T10:44:40.085Z,64.46
2023-03-01T10:47:15.924Z,63.54
2023-03-01T10:49:58.381Z,63.99
2023-03-01T10:52:31.240Z,63.26
2023-03-01T10:55:01.381Z,63.62
2023-03-01T10:57:42.794Z,62.91
2023-03-01T11:00:23.794Z,63.27
2023-03-01T11:03:03.595Z,62.80
2023-03-01T11:05:34.501Z,62.38
2023-03-01T11:08:05.266Z,61.84
2023-03-01T11:10:35.109Z,62.15
2023-03-01T11:13:15.732Z,61.90
2023-03-01T11:15:44.365Z,62.69
2023-03-01T11:18:25.099Z,61.73
2023-03-01T11:21:01.600Z,61.86
2023-03-01T11:23:32.806Z,62.02
2023-03-01T11:26:03.707Z,61.45
2023-03-01T11:28:32.168Z,61.32
2023-03-01T11:31:08.646Z,62.09
2023-03-01T11:33:43.161Z,60.84
2023-03-01T11:36:18.660Z,61.21
2023-03-01T11:38:48.257Z,61.26
2023-03-01T11:41:19.501Z,60.39
2023-03-01T11:43:53.074Z,60.74
2023-03-01T11:46:40.113Z,60.73
2023-03-01T11:49:21.128Z,60.34
2023-03-01T11:51:56.455Z,60.30
2023-03-01T11:54:38.016Z,59.70
2023-03-01T11:57:16.372Z,60.18
2023-03-01T12:00:01.165Z,59.65
2023-03-01T12:02:59.081Z,59.56
2023-03-01T12:05:49.912Z,60.12
2023-03-01T12:08:26.380Z,58.99
2023-03-01T12:11:05.692Z,59.87
2023-03-01T12:13:54.235Z,59.28
2023-03-01T12:16:39.225Z,59.34
2023-03-01T12:19:23.570Z,59.62
2023-03-01T12:22:10.418Z,58.64
2023-03-01T12:24:56.297Z,59.06
2023-03-01T12:27:45.373Z,58.54
2023-03-01T12:30:27.855Z,58.13
2023-03-01T12:33:10.114Z,58.36
2023-03-01T12:35:50.054Z,58.78
2023-03-01T12:38:35.043Z,58.79
2023-03-01T12:41:30.251Z,58.29
2023-03-01T12:44:15.354Z,58.38
2023-03-01T12:46:54.170Z,58.22
2023-03-01T12:49:27.017Z,57.59
2023-03-01T12:52:01.592Z,57.80
2023-03-01T12:54:32.932Z,57.93
2023-03-01T12:57:08.333Z,58.00
2023-03-01T12:59:42.064Z,57.26
2023-03-01T13:02:17.795Z,57.68
2023-03-01T13:05:09.436Z,56.91
2023-03-01T13:07:43.939Z,56.89
2023-03-01T13:10:24.779Z,57.15
2023-03-01T13:13:05.107Z,56.75
2023-03-01T13:15:36.807Z,56.98
2023-03-01T13:18:06.915Z,56.54
2023-03-01T13:20:49.024Z,56.58
2023-03-01T13:23:27.576Z,56.70
2023-03-01T13:26:16.625Z,56.28
2023-03-01T13:29:02.445Z,56.24
2023-03-01T13:32:08.068Z,56.51
2023-03-01T13:34:50.797Z,56.96
2023-03-01T13:37:38.589Z,55.77
2023-03-01T13:40:43.204Z,55.46
2023-03-01T13:43:34.508Z,56.00
2023-03-01T13:46:04.039Z,56.21
2023-03-01T13:48:35.330Z,55.84
2023-03-01T13:51:06.821Z,55.89
2023-03-01T13:53:39.446Z,55.76
2023-03-01T13:56:11.251Z,55.54
2023-03-01T13:58:54.490Z,55.85
2023-03-01T14:01:25.586Z,55.68
2023-03-01T14:03:55.460Z,55.63
2023-03-01T14:06:25.763Z,55.12
2023-03-01T14:09:04.435Z,55.46
2023-03-01T14:12:05.219Z,54.81
2023-03-01T14:14:50.991Z,55.21
2023-03-01T14:17:49.948Z,54.98
2023-03-01T14:20:22.815Z,55.19
2023-03-01T14:22:54.333Z,55.28
2023-03-01T14:25:27.285Z,54.93
2023-03-01T14:28:04.548Z,55.09
2023-03-01T14:30:37.389Z,55.35
2023-03-01T14:33:07.603Z,55.35
2023-03-01T14:35:38.211Z,55.40
2023-03-01T14:38:06.120Z,55.20
2023-03-01T14:40:36.222Z,55.68
2023-03-01T14:43:11.777Z,55.37
2023-03-01T14:45:39.746Z,55.49
2023-03-01T14:48:09.436Z,55.15
2023-03-01T14:50:44.408Z,55.57
2023-03-01T14:53:19.960Z,55.42
2023-03-01T14:55:52.912Z,55.66
2023-03-01T14:58:23.639Z,55.63
2023-03-01T15:00:54.227Z,55.27
2023-03-01T15:03:35.162Z,55.82
2023-03-01T15:06:06.414Z,55.50
2023-03-01T15:08:35.919Z,56.08
2023-03-01T15:11:09.051Z,55.86
2023-03-01T15:13:37.685Z,56.27
2023-03-01T15:16:11.292Z,55.96
2023-03-01T15:18:40.329Z,56.21
2023-03-01T15:21:12.239Z,56.32
2023-03-01T15:23:42.083Z,56.02
2023-03-01T15:26:30.730Z,56.37
2023-03-01T15:29:01.288Z,56.30
2023-03-01T15:31:39.826Z,56.66
2023-03-01T15:34:24.837Z,56.17
2023-03-01T15:36:56.145Z,56.58
2023-03-01T15:39:39.942Z,56.86
2023-03-01T15:42:12.266Z,56.63
2023-03-01T15:44:44.331Z,56.59
2023-03-01T15:47:27.926Z,56.85
2023-03-01T15:49:57.303Z,57.08
2023-03-01T15:52:30.780Z,56.69
2023-03-01T15:55:04.581Z,57.05
2023-03-01T15:57:32.393Z,57.03
2023-03-01T16:00:00.419Z,56.96
2023-03-01T16:02:28.301Z,56.76
2023-03-01T16:04:57.271Z,56.92
2023-03-01T16:07:25.415Z,56.85
2023-03-01T16:09:54.606Z,57.27
2023-03-01T16:12:22.517Z,57.15
2023-03-01T16:14:50.545Z,57.13
2023-03-01T16:17:18.526Z,56.82
2023-03-01T16:19:46.289Z,56.36
2023-03-01T16:22:14.121Z,56.80
2023-03-01T16:24:42.433Z,57.03
2023-03-01T16:27:11.832Z,56.47
2023-03-01T16:29:39.613Z,56.65
2023-03-01T16:32:07.650Z,56.85
2023-03-01T16:34:35.818Z,57.12
2023-03-01T16:37:03.662Z,57.08
2023-03-01T16:39:31.518Z,57.16
2023-03-01T16:42:02.227Z,57.06
2023-03-01T16:44:31.711Z,57.40
2023-03-01T16:46:59.512Z,57.36
2023-03-01T16:49:27.372Z,57.40
2023-03-01T16:51:56.114Z,57.09
2023-03-01T16:54:23.903Z,58.06
2023-03-01T16:56:51.672Z,57.65
2023-03-01T16:59:20.362Z,57.55
2023-03-01T17:01:49.540Z,57.95
2023-03-01T17:04:18.714Z,57.80
2023-03-01T17:06:47.800Z,58.19
2023-03-01T17:09:17.709Z,57.85
2023-03-01T17:11:45.692Z,58.66
2023-03-01T17:14:13.477Z,58.22
2023-03-01T17:16:41.278Z,58.21
2023-03-01T17:19:10.700Z,58.43
2023-03-01T17:21:38.732Z,59.06
2023-03-01T17:24:06.799Z,59.10
2023-03-01T17:26:34.568Z,59.21
2023-03-01T17:29:03.824Z,59.06
2023-03-01T17:31:32.288Z,59.42
2023-03-01T17:34:01.740Z,59.09
2023-03-01T17:36:33.573Z,59.15
2023-03-01T17:39:01.429Z,59.17
2023-03-01T17:41:29.555Z,59.21
2023-03-01T17:43:57.492Z,60.16
2023-03-01T17:46:26.926Z,59.73
2023-03-01T17:48:54.771Z,60.38
2023-03-01T17:51:23.164Z,60.08
2023-03-01T17:53:52.278Z,59.93
2023-03-01T17:56:20.139Z,59.78
2023-03-01T17:58:47.866Z,60.57
2023-03-01T18:01:17.921Z,61.02
2023-03-01T18:03:47.557Z,60.81
2023-03-01T18:06:18.573Z,60.32
2023-03-01T18:08:48.950Z,61.11
2023-03-01T18:11:18.984Z,60.69
2023-03-01T18:13:47.837Z,61.10
2023-03-01T18:16:17.349Z,61.09
2023-03-01T18:18:46.128Z,61.29
2023-03-01T18:21:15.359Z,61.89
2023-03-01T18:23:43.356Z,61.35
2023-03-01T18:26:15.675Z,61.82
2023-03-01T18:28:47.244Z,61.98
2023-03-01T18:31:18.417Z,61.55
2023-03-01T18:33:46.782Z,61.88
2023-03-01T18:36:21.607Z,62.52
2023-03-01T18:38:49.729Z,62.10
2023-03-01T18:41:17.928Z,62.97
2023-03-01T18:43:47.068Z,62.66
2023-03-01T18:46:15.003Z,62.46
2023-03-01T18:48:42.972Z,62.94
2023-03-01T18:51:13.150Z,63.03
2023-03-01T18:53:41.266Z,63.20
2023-03-01T18:56:09.876Z,63.31
2023-03-01T18:58:38.450Z,62.74
2023-03-01T19:01:13.327Z,62.78
2023-03-01T19:03:41.140Z,62.99
2023-03-01T19:06:09.083Z,63.49
2023-03-01T19:08:37.125Z,64.18
2023-03-01T19:11:06.639Z,63.81
2023-03-01T19:13:37.424Z,63.63
2023-03-01T19:16:08.838Z,64.13
2023-03-01T19:18:37.137Z,63.72
2023-03-01T19:21:06.018Z,64.82
2023-03-01T19:23:35.050Z,64.25
2023-03-01T19:26:04.447Z,64.15
2023-03-01T19:28:33.016Z,64.47
2023-03-01T19:31:02.451Z,65.03
2023-03-01T19:33:34.051Z,64.61
2023-03-01T19:36:02.555Z,65.07
2023-03-01T19:38:30.855Z,64.93
2023-03-01T19:40:58.915Z,64.88
2023-03-01T19:43:26.763Z,65.21
2023-03-01T19:45:56.161Z,65.05
2023-03-01T19:48:24.668Z,65.46
2023-03-01T19:50:54.396Z,65.58
2023-03-01T19:53:22.853Z,66.05
2023-03-01T19:55:53.026Z,65.71
2023-03-01T19:58:21.263Z,67.06
2023-03-01T20:00:49.468Z,67.50
2023-03-01T20:03:18.083Z,67.37
2023-03-01T20:05:46.644Z,67.08
2023-03-01T20:08:16.078Z,67.15
2023-03-01T20:10:44.310Z,67.15
2023-03-01T20:13:12.461Z,68.03
2023-03-01T20:15:42.717Z,68.25
2023-03-01T20:18:11.848Z,67.59
2023-03-01T20:20:39.621Z,68.67
2023-03-01T20:23:07.455Z,67.81
2023-03-01T20:25:37.522Z,68.37
2023-03-01T20:28:06.228Z,68.73
2023-03-01T20:30:34.044Z,68.65
2023-03-01T20:33:01.776Z,68.65
2023-03-01T20:35:32.677Z,68.87
2023-03-01T20:38:00.944Z,69.04
2023-03-01T20:40:28.859Z,69.31
2023-03-01T20:42:58.695Z,69.52
2023-03-01T20:45:28.271Z,70.42
2023-03-01T20:47:56.306Z,69.27
2023-03-01T20:50:24.052Z,69.75
2023-03-01T20:52:51.923Z,70.15
2023-03-01T20:55:20.107Z,70.43
2023-03-01T20:57:47.940Z,70.67
2023-03-01T21:00:18.385Z,70.27
2023-03-01T21:02:46.231Z,70.27
2023-03-01T21:05:13.978Z,70.20
2023-03-01T21:07:42.860Z,70.37
2023-03-01T21:10:12.258Z,70.60
2023-03-01T21:12:40.187Z,70.03
2023-03-01T21:15:11.247Z,70.06
2023-03-01T21:17:40.621Z,71.13
2023-03-01T21:20:09.772Z,71.17
2023-03-01T21:22:37.647Z,71.15
2023-03-01T21:25:06.146Z,70.67
2023-03-01T21:27:37.512Z,70.94
2023-03-01T21:30:06.374Z,71.24
2023-03-01T21:32:34.248Z,71.02
2023-03-01T21:35:03.517Z,71.17
2023-03-01T21:37:32.283Z,71.29
2023-03-01T21:40:00.397Z,71.29
2023-03-01T21:42:28.115Z,71.52
2023-03-01T21:44:55.894Z,71.25
2023-03-01T21:47:23.759Z,71.06
2023-03-01T21:49:51.580Z,71.33
2023-03-01T21:52:20.811Z,71.59
2023-03-01T21:54:51.990Z,70.66
2023-03-01T21:57:20.110Z,72.01
2023-03-01T21:59:48.042Z,71.81
2023-03-01T22:02:15.994Z,71.78
2023-03-01T22:04:43.862Z,71.75
2023-03-01T22:07:11.756Z,72.01
2023-03-01T22:09:41.008Z,72.31
2023-03-01T22:12:08.823Z,72.24
2023-03-01T22:14:36.655Z,72.33
2023-03-01T22:17:04.538Z,72.56
2023-03-01T22:19:32.434Z,72.33
2023-03-01T22:22:00.207Z,72.12
2023-03-01T22:24:29.255Z,72.59
2023-03-01T22:26:58.461Z,71.78
2023-03-01T22:29:29.031Z,71.76
2023-03-01T22:31:58.330Z,71.98
2023-03-01T22:34:26.543Z,72.08
2023-03-01T22:36:54.446Z,72.59
2023-03-01T22:39:23.245Z,72.01
2023-03-01T22:41:51.430Z,72.51
2023-03-01T22:44:22.894Z,72.32
2023-03-01T22:46:51.361Z,72.64
2023-03-01T22:49:19.404Z,72.86
2023-03-01T22:51:48.201Z,72.91
2023-03-01T22:54:17.901Z,72.74
2023-03-01T22:56:46.365Z,72.58
2023-03-01T22:59:16.243Z,73.16
2023-03-01T23:01:47.752Z,72.27
2023-03-01T23:04:18.260Z,72.70
2023-03-01T23:06:54.076Z,72.54
2023-03-01T23:09:24.608Z,72.94
2023-03-01T23:11:53.149Z,72.89
2023-03-01T23:14:21.470Z,72.72
2023-03-01T23:16:51.711Z,72.52
2023-03-01T23:19:20.310Z,72.79
2023-03-01T23:21:50.104Z,72.95
2023-03-01T23:24:19.720Z,73.05
2023-03-01T23:26:51.765Z,72.74
2023-03-01T23:29:20.729Z,72.84
2023-03-01T23:31:50.651Z,72.71
2023-03-01T23:34:18.992Z,72.73
2023-03-01T23:36:46.913Z,72.41
2023-03-01T23:39:15.339Z,73.13
2023-03-01T23:41:43.235Z,72.90
2023-03-01T23:44:16.280Z,72.36
2023-03-01T23:46:45.777Z,72.84
2023-03-01T23:49:16.868Z,72.69
2023-03-01T23:51:47.628Z,73.09
2023-03-01T23:54:17.767Z,73.24
2023-03-01T23:56:46.997Z,73.23
2023-03-01T23:59:17.307Z,73.67
